sensor_id;sensor_type;location;lat;lon;timestamp;temperature;humidity
5930;DHT22;2990;48.746;9.236;2022-10-16T00:00:44;14.80;99.90
5930;DHT22;2990;48.746;9.236;2022-10-16T00:03:10;14.80;99.90
5930;DHT22;2990;48.746;9.236;2022-10-16T00:05:43;14.80;99.90
5930;DHT22;2990;48.746;9.236;2022-10-16T00:08:10;14.80;99.90
5930;DHT22;2990;48.746;9.236;2022-10-16T00:10:36;14.80;99.90
5930;DHT22;2990;48.746;9.236;2022-10-16T00:13:03;14.80;99.90
5930;DHT22;2990;48.746;9.236;2022-10-16T00:15:28;14.80;99.90
5930;DHT22;2990;48.746;9.236;2022-10-16T00:17:54;14.80;99.90
5930;DHT22;2990;48.746;9.236;2022-10-16T00:20:19;14.80;99.90
5930;DHT22;2990;48.746;9.236;2022-10-16T00:22:45;14.70;99.90
5930;DHT22;2990;48.746;9.236;2022-10-16T00:25:10;14.70;99.90
5930;DHT22;2990;48.746;9.236;2022-10-16T00:27:36;14.70;99.90
5930;DHT22;2990;48.746;9.236;2022-10-16T00:30:02;14.70;99.90
5930;DHT22;2990;48.746;9.236;2022-10-16T00:32:28;14.70;99.90
5930;DHT22;2990;48.746;9.236;2022-10-16T00:34:54;14.70;99.90
5930;DHT22;2990;48.746;9.236;2022-10-16T00:37:22;14.70;99.90
5930;DHT22;2990;48.746;9.236;2022-10-16T00:39:47;14.70;99.90
5930;DHT22;2990;48.746;9.236;2022-10-16T00:42:17;14.70;99.90
5930;DHT22;2990;48.746;9.236;2022-10-16T00:44:49;14.70;99.90
5930;DHT22;2990;48.746;9.236;2022-10-16T00:47:26;14.70;99.90
5930;DHT22;2990;48.746;9.236;2022-10-16T00:50:00;14.70;99.90
5930;DHT22;2990;48.746;9.236;2022-10-16T00:52:27;14.60;99.90
5930;DHT22;2990;48.746;9.236;2022-10-16T00:54:54;14.60;99.90
5930;DHT22;2990;48.746;9.236;2022-10-16T00:57:20;14.60;99.90
5930;DHT22;2990;48.746;9.236;2022-10-16T00:59:46;14.70;99.90
5930;DHT22;2990;48.746;9.236;2022-10-16T01:02:14;14.60;99.90
5930;DHT22;2990;48.746;9.236;2022-10-16T01:04:46;14.60;99.90
5930;DHT22;2990;48.746;9.236;2022-10-16T01:09:58;14.50;99.90
5930;DHT22;2990;48.746;9.236;2022-10-16T01:12:41;14.50;99.90
5930;DHT22;2990;48.746;9.236;2022-10-16T01:15:32;14.50;99.90
5930;DHT22;2990;48.746;9.236;2022-10-16T01:21:01;14.40;99.90
5930;DHT22;2990;48.746;9.236;2022-10-16T01:29:39;14.40;99.90
5930;DHT22;2990;48.746;9.236;2022-10-16T01:35:42;14.40;99.90
5930;DHT22;2990;48.746;9.236;2022-10-16T01:37:55;14.40;99.90
5930;DHT22;2990;48.746;9.236;2022-10-16T01:40:26;14.40;99.90
5930;DHT22;2990;48.746;9.236;2022-10-16T01:42:56;14.40;99.90
5930;DHT22;2990;48.746;9.236;2022-10-16T01:45:24;14.50;99.90
5930;DHT22;2990;48.746;9.236;2022-10-16T01:47:50;14.50;99.90
5930;DHT22;2990;48.746;9.236;2022-10-16T01:50:19;14.50;99.90
5930;DHT22;2990;48.746;9.236;2022-10-16T01:52:48;14.50;99.90
5930;DHT22;2990;48.746;9.236;2022-10-16T01:55:21;14.50;99.90
5930;DHT22;2990;48.746;9.236;2022-10-16T01:57:49;14.60;99.90
5930;DHT22;2990;48.746;9.236;2022-10-16T02:00:17;14.70;99.90
5930;DHT22;2990;48.746;9.236;2022-10-16T02:02:47;14.50;99.90
5930;DHT22;2990;48.746;9.236;2022-10-16T02:05:34;14.60;99.90
5930;DHT22;2990;48.746;9.236;2022-10-16T02:08:02;14.60;99.90
5930;DHT22;2990;48.746;9.236;2022-10-16T02:10:28;14.60;99.90
5930;DHT22;2990;48.746;9.236;2022-10-16T02:15:30;14.60;99.90
5930;DHT22;2990;48.746;9.236;2022-10-16T02:17:56;14.60;99.90
5930;DHT22;2990;48.746;9.236;2022-10-16T02:20:25;14.60;99.90
5930;DHT22;2990;48.746;9.236;2022-10-16T02:22:54;14.60;99.90
5930;DHT22;2990;48.746;9.236;2022-10-16T02:25:30;14.60;99.90
5930;DHT22;2990;48.746;9.236;2022-10-16T02:28:06;14.60;99.90
5930;DHT22;2990;48.746;9.236;2022-10-16T02:30:45;14.60;99.90
5930;DHT22;2990;48.746;9.236;2022-10-16T02:33:14;14.60;99.90
5930;DHT22;2990;48.746;9.236;2022-10-16T02:35:43;14.60;99.90
5930;DHT22;2990;48.746;9.236;2022-10-16T02:38:10;14.60;99.90
5930;DHT22;2990;48.746;9.236;2022-10-16T02:40:36;14.50;99.90
5930;DHT22;2990;48.746;9.236;2022-10-16T02:43:03;14.60;99.90
5930;DHT22;2990;48.746;9.236;2022-10-16T02:45:30;14.60;99.90
5930;DHT22;2990;48.746;9.236;2022-10-16T02:47:55;14.50;99.90
5930;DHT22;2990;48.746;9.236;2022-10-16T02:50:21;14.50;99.90
5930;DHT22;2990;48.746;9.236;2022-10-16T02:52:47;14.60;99.90
5930;DHT22;2990;48.746;9.236;2022-10-16T02:55:13;14.60;99.90
5930;DHT22;2990;48.746;9.236;2022-10-16T02:57:38;14.50;99.90
5930;DHT22;2990;48.746;9.236;2022-10-16T03:00:09;14.50;99.90
5930;DHT22;2990;48.746;9.236;2022-10-16T03:02:36;14.40;99.90
5930;DHT22;2990;48.746;9.236;2022-10-16T03:05:02;14.40;99.90
5930;DHT22;2990;48.746;9.236;2022-10-16T03:07:28;14.40;99.90
5930;DHT22;2990;48.746;9.236;2022-10-16T03:09:53;14.40;99.90
5930;DHT22;2990;48.746;9.236;2022-10-16T03:12:20;14.40;99.90
5930;DHT22;2990;48.746;9.236;2022-10-16T03:14:45;14.40;99.90
5930;DHT22;2990;48.746;9.236;2022-10-16T03:17:11;14.40;99.90
5930;DHT22;2990;48.746;9.236;2022-10-16T03:19:37;14.40;99.90
5930;DHT22;2990;48.746;9.236;2022-10-16T03:22:03;14.40;99.90
5930;DHT22;2990;48.746;9.236;2022-10-16T03:24:29;14.40;99.90
5930;DHT22;2990;48.746;9.236;2022-10-16T03:26:54;14.40;99.90
5930;DHT22;2990;48.746;9.236;2022-10-16T03:29:20;14.40;99.90
5930;DHT22;2990;48.746;9.236;2022-10-16T03:31:45;14.40;99.90
5930;DHT22;2990;48.746;9.236;2022-10-16T03:34:11;14.30;99.90
5930;DHT22;2990;48.746;9.236;2022-10-16T03:36:36;14.30;99.90
5930;DHT22;2990;48.746;9.236;2022-10-16T03:39:02;14.40;99.90
5930;DHT22;2990;48.746;9.236;2022-10-16T03:41:28;14.40;99.90
5930;DHT22;2990;48.746;9.236;2022-10-16T03:43:53;14.40;99.90
5930;DHT22;2990;48.746;9.236;2022-10-16T03:46:19;14.30;99.90
5930;DHT22;2990;48.746;9.236;2022-10-16T03:48:45;14.30;99.90
5930;DHT22;2990;48.746;9.236;2022-10-16T03:51:10;14.30;99.90
5930;DHT22;2990;48.746;9.236;2022-10-16T03:53:36;14.30;99.90
5930;DHT22;2990;48.746;9.236;2022-10-16T03:56:02;14.30;99.90
5930;DHT22;2990;48.746;9.236;2022-10-16T03:58:27;14.30;99.90
5930;DHT22;2990;48.746;9.236;2022-10-16T04:00:53;14.30;99.90
5930;DHT22;2990;48.746;9.236;2022-10-16T04:03:18;14.30;99.90
5930;DHT22;2990;48.746;9.236;2022-10-16T04:05:44;14.30;99.90
5930;DHT22;2990;48.746;9.236;2022-10-16T04:08:10;14.40;99.90
5930;DHT22;2990;48.746;9.236;2022-10-16T04:10:36;14.40;99.90
5930;DHT22;2990;48.746;9.236;2022-10-16T04:13:01;14.30;99.90
5930;DHT22;2990;48.746;9.236;2022-10-16T04:15:27;14.30;99.90
5930;DHT22;2990;48.746;9.236;2022-10-16T04:17:52;14.30;99.90
5930;DHT22;2990;48.746;9.236;2022-10-16T04:20:18;14.40;99.90
5930;DHT22;2990;48.746;9.236;2022-10-16T04:22:44;14.50;99.90
5930;DHT22;2990;48.746;9.236;2022-10-16T04:25:10;14.50;99.90
5930;DHT22;2990;48.746;9.236;2022-10-16T04:27:36;14.50;99.90
5930;DHT22;2990;48.746;9.236;2022-10-16T04:30:02;14.50;99.90
5930;DHT22;2990;48.746;9.236;2022-10-16T04:32:28;14.50;99.90
5930;DHT22;2990;48.746;9.236;2022-10-16T04:34:54;14.50;99.90
5930;DHT22;2990;48.746;9.236;2022-10-16T04:37:24;14.50;99.90
5930;DHT22;2990;48.746;9.236;2022-10-16T04:39:49;14.50;99.90
5930;DHT22;2990;48.746;9.236;2022-10-16T04:42:15;14.50;99.90
5930;DHT22;2990;48.746;9.236;2022-10-16T04:44:40;14.60;99.90
5930;DHT22;2990;48.746;9.236;2022-10-16T04:47:06;14.50;99.90
5930;DHT22;2990;48.746;9.236;2022-10-16T04:49:31;14.50;99.90
5930;DHT22;2990;48.746;9.236;2022-10-16T04:51:57;14.50;99.90
5930;DHT22;2990;48.746;9.236;2022-10-16T04:54:22;14.50;99.90
5930;DHT22;2990;48.746;9.236;2022-10-16T04:56:48;14.50;99.90
5930;DHT22;2990;48.746;9.236;2022-10-16T04:59:16;14.50;99.90
5930;DHT22;2990;48.746;9.236;2022-10-16T05:01:42;14.50;99.90
5930;DHT22;2990;48.746;9.236;2022-10-16T05:04:07;14.50;99.90
5930;DHT22;2990;48.746;9.236;2022-10-16T05:06:33;14.50;99.90
5930;DHT22;2990;48.746;9.236;2022-10-16T05:08:59;14.50;99.90
5930;DHT22;2990;48.746;9.236;2022-10-16T05:11:24;14.50;99.90
5930;DHT22;2990;48.746;9.236;2022-10-16T05:13:50;14.50;99.90
5930;DHT22;2990;48.746;9.236;2022-10-16T05:16:15;14.50;99.90
5930;DHT22;2990;48.746;9.236;2022-10-16T05:18:41;14.50;99.90
5930;DHT22;2990;48.746;9.236;2022-10-16T05:21:07;14.50;99.90
5930;DHT22;2990;48.746;9.236;2022-10-16T05:23:32;14.50;99.90
5930;DHT22;2990;48.746;9.236;2022-10-16T05:25:59;14.40;99.90
5930;DHT22;2990;48.746;9.236;2022-10-16T05:28:29;14.50;99.90
5930;DHT22;2990;48.746;9.236;2022-10-16T05:30:55;14.50;99.90
5930;DHT22;2990;48.746;9.236;2022-10-16T05:33:22;14.50;99.90
5930;DHT22;2990;48.746;9.236;2022-10-16T05:35:48;14.50;99.90
5930;DHT22;2990;48.746;9.236;2022-10-16T05:38:15;14.50;99.90
5930;DHT22;2990;48.746;9.236;2022-10-16T05:40:41;14.50;99.90
5930;DHT22;2990;48.746;9.236;2022-10-16T05:43:06;14.40;99.90
5930;DHT22;2990;48.746;9.236;2022-10-16T05:45:32;14.40;99.90
5930;DHT22;2990;48.746;9.236;2022-10-16T05:47:58;14.30;99.90
5930;DHT22;2990;48.746;9.236;2022-10-16T05:50:23;14.30;99.90
5930;DHT22;2990;48.746;9.236;2022-10-16T05:52:49;14.30;99.90
5930;DHT22;2990;48.746;9.236;2022-10-16T05:55:14;14.30;99.90
5930;DHT22;2990;48.746;9.236;2022-10-16T05:57:40;14.30;99.90
5930;DHT22;2990;48.746;9.236;2022-10-16T06:00:06;14.30;99.90
5930;DHT22;2990;48.746;9.236;2022-10-16T06:02:32;14.30;99.90
5930;DHT22;2990;48.746;9.236;2022-10-16T06:04:57;14.30;99.90
5930;DHT22;2990;48.746;9.236;2022-10-16T06:07:23;14.30;99.90
5930;DHT22;2990;48.746;9.236;2022-10-16T06:09:49;14.30;99.90
5930;DHT22;2990;48.746;9.236;2022-10-16T06:12:16;14.30;99.90
5930;DHT22;2990;48.746;9.236;2022-10-16T06:14:41;14.20;99.90
5930;DHT22;2990;48.746;9.236;2022-10-16T06:17:07;14.20;99.90
5930;DHT22;2990;48.746;9.236;2022-10-16T06:19:32;14.30;99.90
5930;DHT22;2990;48.746;9.236;2022-10-16T06:21:58;14.30;99.90
5930;DHT22;2990;48.746;9.236;2022-10-16T06:24:24;14.20;99.90
5930;DHT22;2990;48.746;9.236;2022-10-16T06:26:50;14.30;99.90
5930;DHT22;2990;48.746;9.236;2022-10-16T06:29:16;14.40;99.90
5930;DHT22;2990;48.746;9.236;2022-10-16T06:31:41;14.40;99.90
5930;DHT22;2990;48.746;9.236;2022-10-16T06:34:09;14.30;99.90
5930;DHT22;2990;48.746;9.236;2022-10-16T06:36:36;14.60;99.90
5930;DHT22;2990;48.746;9.236;2022-10-16T06:39:02;14.50;99.90
5930;DHT22;2990;48.746;9.236;2022-10-16T06:41:28;14.60;99.90
5930;DHT22;2990;48.746;9.236;2022-10-16T06:43:54;14.70;99.90
5930;DHT22;2990;48.746;9.236;2022-10-16T06:46:22;14.80;85.50
5930;DHT22;2990;48.746;9.236;2022-10-16T06:48:47;14.80;57.80
5930;DHT22;2990;48.746;9.236;2022-10-16T06:51:21;14.90;45.70
5930;DHT22;2990;48.746;9.236;2022-10-16T06:53:54;15.00;14.10
5930;DHT22;2990;48.746;9.236;2022-10-16T06:56:26;15.00;1.00
5930;DHT22;2990;48.746;9.236;2022-10-16T06:58:53;15.10;1.00
5930;DHT22;2990;48.746;9.236;2022-10-16T07:01:20;15.10;1.00
5930;DHT22;2990;48.746;9.236;2022-10-16T07:03:47;15.20;1.00
5930;DHT22;2990;48.746;9.236;2022-10-16T07:06:15;15.30;1.00
5930;DHT22;2990;48.746;9.236;2022-10-16T07:08:42;15.30;1.00
5930;DHT22;2990;48.746;9.236;2022-10-16T07:11:10;15.40;1.00
5930;DHT22;2990;48.746;9.236;2022-10-16T07:13:37;15.40;1.00
5930;DHT22;2990;48.746;9.236;2022-10-16T07:16:14;15.50;1.00
5930;DHT22;2990;48.746;9.236;2022-10-16T07:18:41;15.50;1.00
5930;DHT22;2990;48.746;9.236;2022-10-16T07:21:14;15.50;1.00
5930;DHT22;2990;48.746;9.236;2022-10-16T07:23:40;15.50;1.00
5930;DHT22;2990;48.746;9.236;2022-10-16T07:26:07;15.60;1.00
5930;DHT22;2990;48.746;9.236;2022-10-16T07:28:33;15.60;1.00
5930;DHT22;2990;48.746;9.236;2022-10-16T07:31:03;15.60;1.00
5930;DHT22;2990;48.746;9.236;2022-10-16T07:33:29;15.60;1.00
5930;DHT22;2990;48.746;9.236;2022-10-16T07:35:55;15.60;1.00
5930;DHT22;2990;48.746;9.236;2022-10-16T07:38:21;15.60;1.00
5930;DHT22;2990;48.746;9.236;2022-10-16T07:40:47;15.60;1.00
5930;DHT22;2990;48.746;9.236;2022-10-16T07:43:14;15.60;1.00
5930;DHT22;2990;48.746;9.236;2022-10-16T07:45:48;15.60;1.00
5930;DHT22;2990;48.746;9.236;2022-10-16T07:48:14;15.60;1.00
5930;DHT22;2990;48.746;9.236;2022-10-16T07:50:40;15.60;1.00
5930;DHT22;2990;48.746;9.236;2022-10-16T07:53:06;15.60;1.00
5930;DHT22;2990;48.746;9.236;2022-10-16T07:55:32;15.60;1.00
5930;DHT22;2990;48.746;9.236;2022-10-16T07:57:57;15.70;1.00
5930;DHT22;2990;48.746;9.236;2022-10-16T08:00:23;15.70;1.00
5930;DHT22;2990;48.746;9.236;2022-10-16T08:02:48;15.70;1.00
5930;DHT22;2990;48.746;9.236;2022-10-16T08:05:14;15.70;1.00
5930;DHT22;2990;48.746;9.236;2022-10-16T08:07:39;15.80;1.00
5930;DHT22;2990;48.746;9.236;2022-10-16T08:10:05;15.80;1.00
5930;DHT22;2990;48.746;9.236;2022-10-16T08:12:31;15.80;1.00
5930;DHT22;2990;48.746;9.236;2022-10-16T08:14:56;15.80;1.00
5930;DHT22;2990;48.746;9.236;2022-10-16T08:17:22;15.90;1.00
5930;DHT22;2990;48.746;9.236;2022-10-16T08:19:48;15.90;1.00
5930;DHT22;2990;48.746;9.236;2022-10-16T08:22:14;16.00;1.00
5930;DHT22;2990;48.746;9.236;2022-10-16T08:24:40;16.10;1.00
5930;DHT22;2990;48.746;9.236;2022-10-16T08:27:06;16.20;1.00
5930;DHT22;2990;48.746;9.236;2022-10-16T08:29:32;16.30;1.00
5930;DHT22;2990;48.746;9.236;2022-10-16T08:31:57;16.50;99.90
5930;DHT22;2990;48.746;9.236;2022-10-16T08:34:23;16.60;99.90
5930;DHT22;2990;48.746;9.236;2022-10-16T08:36:48;16.70;99.90
5930;DHT22;2990;48.746;9.236;2022-10-16T08:39:15;16.80;99.90
5930;DHT22;2990;48.746;9.236;2022-10-16T08:42:15;16.90;1.00
5930;DHT22;2990;48.746;9.236;2022-10-16T08:45:07;16.90;1.00
5930;DHT22;2990;48.746;9.236;2022-10-16T08:47:45;16.90;99.90
5930;DHT22;2990;48.746;9.236;2022-10-16T08:50:27;17.00;1.00
5930;DHT22;2990;48.746;9.236;2022-10-16T08:52:53;17.00;1.00
5930;DHT22;2990;48.746;9.236;2022-10-16T08:55:41;16.90;1.00
5930;DHT22;2990;48.746;9.236;2022-10-16T08:58:16;16.90;99.90
5930;DHT22;2990;48.746;9.236;2022-10-16T09:00:44;16.90;99.90
5930;DHT22;2990;48.746;9.236;2022-10-16T09:06:43;16.80;1.00
5930;DHT22;2990;48.746;9.236;2022-10-16T09:11:57;16.90;93.00
5930;DHT22;2990;48.746;9.236;2022-10-16T09:17:37;17.30;1.00
5930;DHT22;2990;48.746;9.236;2022-10-16T09:22:36;17.60;99.90
5930;DHT22;2990;48.746;9.236;2022-10-16T09:25:11;17.70;99.90
5930;DHT22;2990;48.746;9.236;2022-10-16T09:27:37;17.80;1.00
5930;DHT22;2990;48.746;9.236;2022-10-16T09:30:15;17.90;99.90
5930;DHT22;2990;48.746;9.236;2022-10-16T09:32:43;18.00;99.90
5930;DHT22;2990;48.746;9.236;2022-10-16T09:35:21;18.00;99.90
5930;DHT22;2990;48.746;9.236;2022-10-16T09:37:54;18.00;1.00
5930;DHT22;2990;48.746;9.236;2022-10-16T09:40:35;18.10;1.00
5930;DHT22;2990;48.746;9.236;2022-10-16T09:43:07;18.20;1.00
5930;DHT22;2990;48.746;9.236;2022-10-16T09:45:38;18.40;1.00
5930;DHT22;2990;48.746;9.236;2022-10-16T09:48:11;18.50;1.00
5930;DHT22;2990;48.746;9.236;2022-10-16T09:50:37;18.80;99.90
5930;DHT22;2990;48.746;9.236;2022-10-16T09:53:14;18.80;1.00
5930;DHT22;2990;48.746;9.236;2022-10-16T09:55:50;18.90;99.90
5930;DHT22;2990;48.746;9.236;2022-10-16T09:58:16;19.30;99.90
5930;DHT22;2990;48.746;9.236;2022-10-16T10:00:49;19.60;1.00
5930;DHT22;2990;48.746;9.236;2022-10-16T10:06:14;19.90;99.90
5930;DHT22;2990;48.746;9.236;2022-10-16T10:08:56;19.90;1.00
5930;DHT22;2990;48.746;9.236;2022-10-16T10:11:39;20.00;99.90
5930;DHT22;2990;48.746;9.236;2022-10-16T10:14:09;20.00;1.00
5930;DHT22;2990;48.746;9.236;2022-10-16T10:16:38;19.90;1.00
5930;DHT22;2990;48.746;9.236;2022-10-16T10:19:04;20.00;1.00
5930;DHT22;2990;48.746;9.236;2022-10-16T10:21:33;20.00;99.90
5930;DHT22;2990;48.746;9.236;2022-10-16T10:23:58;19.90;1.00
5930;DHT22;2990;48.746;9.236;2022-10-16T10:26:27;20.00;1.00
5930;DHT22;2990;48.746;9.236;2022-10-16T10:29:06;20.10;1.00
5930;DHT22;2990;48.746;9.236;2022-10-16T10:37:09;20.30;99.90
5930;DHT22;2990;48.746;9.236;2022-10-16T10:39:47;20.30;1.00
5930;DHT22;2990;48.746;9.236;2022-10-16T10:42:26;20.40;1.00
5930;DHT22;2990;48.746;9.236;2022-10-16T10:50:25;20.70;1.00
5930;DHT22;2990;48.746;9.236;2022-10-16T10:56:18;20.70;1.00
5930;DHT22;2990;48.746;9.236;2022-10-16T11:04:56;20.90;1.00
5930;DHT22;2990;48.746;9.236;2022-10-16T11:07:30;21.10;1.00
5930;DHT22;2990;48.746;9.236;2022-10-16T11:10:13;21.40;1.00
5930;DHT22;2990;48.746;9.236;2022-10-16T11:12:42;21.80;99.90
5930;DHT22;2990;48.746;9.236;2022-10-16T11:15:29;22.00;99.90
5930;DHT22;2990;48.746;9.236;2022-10-16T11:18:07;22.10;99.90
5930;DHT22;2990;48.746;9.236;2022-10-16T11:21:04;22.20;99.90
5930;DHT22;2990;48.746;9.236;2022-10-16T11:26:05;22.40;99.90
5930;DHT22;2990;48.746;9.236;2022-10-16T11:28:48;22.40;99.90
5930;DHT22;2990;48.746;9.236;2022-10-16T11:31:19;22.40;99.90
5930;DHT22;2990;48.746;9.236;2022-10-16T11:36:45;22.10;99.90
5930;DHT22;2990;48.746;9.236;2022-10-16T11:39:29;22.10;99.90
5930;DHT22;2990;48.746;9.236;2022-10-16T11:42:11;22.00;99.90
5930;DHT22;2990;48.746;9.236;2022-10-16T11:44:48;22.10;99.90
5930;DHT22;2990;48.746;9.236;2022-10-16T11:47:43;22.40;99.90
5930;DHT22;2990;48.746;9.236;2022-10-16T11:50:37;22.60;99.90
5930;DHT22;2990;48.746;9.236;2022-10-16T11:53:11;22.80;99.90
5930;DHT22;2990;48.746;9.236;2022-10-16T11:55:43;23.00;99.90
5930;DHT22;2990;48.746;9.236;2022-10-16T11:58:30;23.20;99.90
5930;DHT22;2990;48.746;9.236;2022-10-16T12:03:40;23.30;77.20
5930;DHT22;2990;48.746;9.236;2022-10-16T12:06:30;23.30;45.20
5930;DHT22;2990;48.746;9.236;2022-10-16T12:08:59;23.40;55.00
5930;DHT22;2990;48.746;9.236;2022-10-16T12:16:39;23.50;8.70
5930;DHT22;2990;48.746;9.236;2022-10-16T12:19:17;23.60;16.90
5930;DHT22;2990;48.746;9.236;2022-10-16T12:21:44;23.70;10.80
5930;DHT22;2990;48.746;9.236;2022-10-16T12:24:32;24.00;9.10
5930;DHT22;2990;48.746;9.236;2022-10-16T12:26:58;24.00;10.80
5930;DHT22;2990;48.746;9.236;2022-10-16T12:29:41;24.10;22.60
5930;DHT22;2990;48.746;9.236;2022-10-16T12:38:20;23.90;4.40
5930;DHT22;2990;48.746;9.236;2022-10-16T12:41:24;24.00;1.00
5930;DHT22;2990;48.746;9.236;2022-10-16T12:43:46;24.10;12.90
5930;DHT22;2990;48.746;9.236;2022-10-16T12:48:39;24.00;17.60
5930;DHT22;2990;48.746;9.236;2022-10-16T12:51:19;23.90;9.20
5930;DHT22;2990;48.746;9.236;2022-10-16T12:53:57;23.90;31.40
5930;DHT22;2990;48.746;9.236;2022-10-16T12:56:39;23.70;32.00
5930;DHT22;2990;48.746;9.236;2022-10-16T12:59:28;23.50;46.40
5930;DHT22;2990;48.746;9.236;2022-10-16T13:02:18;23.30;73.00
5930;DHT22;2990;48.746;9.236;2022-10-16T13:05:14;23.10;78.80
5930;DHT22;2990;48.746;9.236;2022-10-16T13:18:22;22.40;57.10
5930;DHT22;2990;48.746;9.236;2022-10-16T13:30:01;22.30;87.40
5930;DHT22;2990;48.746;9.236;2022-10-16T13:32:27;22.20;81.20
5930;DHT22;2990;48.746;9.236;2022-10-16T13:34:53;22.10;64.80
5930;DHT22;2990;48.746;9.236;2022-10-16T13:37:21;22.30;78.50
5930;DHT22;2990;48.746;9.236;2022-10-16T13:39:47;22.10;61.40
5930;DHT22;2990;48.746;9.236;2022-10-16T13:42:19;21.90;63.30
5930;DHT22;2990;48.746;9.236;2022-10-16T13:44:53;22.00;31.70
5930;DHT22;2990;48.746;9.236;2022-10-16T13:47:26;22.10;63.50
5930;DHT22;2990;48.746;9.236;2022-10-16T13:50:13;22.20;74.10
5930;DHT22;2990;48.746;9.236;2022-10-16T13:52:39;22.20;64.00
5930;DHT22;2990;48.746;9.236;2022-10-16T13:55:12;22.10;67.60
5930;DHT22;2990;48.746;9.236;2022-10-16T13:57:38;22.10;69.10
5930;DHT22;2990;48.746;9.236;2022-10-16T14:00:21;22.10;30.90
5930;DHT22;2990;48.746;9.236;2022-10-16T14:03:01;22.10;62.10
5930;DHT22;2990;48.746;9.236;2022-10-16T14:05:28;22.20;86.70
5930;DHT22;2990;48.746;9.236;2022-10-16T14:07:54;22.10;90.00
5930;DHT22;2990;48.746;9.236;2022-10-16T14:10:27;22.00;95.50
5930;DHT22;2990;48.746;9.236;2022-10-16T14:13:05;21.90;99.90
5930;DHT22;2990;48.746;9.236;2022-10-16T14:15:35;21.70;99.90
5930;DHT22;2990;48.746;9.236;2022-10-16T14:18:02;21.60;99.90
5930;DHT22;2990;48.746;9.236;2022-10-16T14:20:31;21.60;99.90
5930;DHT22;2990;48.746;9.236;2022-10-16T14:23:02;21.60;99.90
5930;DHT22;2990;48.746;9.236;2022-10-16T14:25:31;21.40;99.90
5930;DHT22;2990;48.746;9.236;2022-10-16T14:28:13;21.50;99.90
5930;DHT22;2990;48.746;9.236;2022-10-16T14:30:50;21.50;99.90
5930;DHT22;2990;48.746;9.236;2022-10-16T14:38:36;21.50;99.90
5930;DHT22;2990;48.746;9.236;2022-10-16T14:41:03;21.60;99.90
5930;DHT22;2990;48.746;9.236;2022-10-16T14:43:35;21.50;99.90
5930;DHT22;2990;48.746;9.236;2022-10-16T14:46:03;21.50;99.90
5930;DHT22;2990;48.746;9.236;2022-10-16T14:48:30;21.50;99.90
5930;DHT22;2990;48.746;9.236;2022-10-16T14:50:55;21.50;99.90
5930;DHT22;2990;48.746;9.236;2022-10-16T14:53:21;21.50;99.90
5930;DHT22;2990;48.746;9.236;2022-10-16T14:55:47;21.50;99.90
5930;DHT22;2990;48.746;9.236;2022-10-16T14:58:21;21.50;99.90
5930;DHT22;2990;48.746;9.236;2022-10-16T15:00:48;21.60;99.90
5930;DHT22;2990;48.746;9.236;2022-10-16T15:03:14;21.60;99.90
5930;DHT22;2990;48.746;9.236;2022-10-16T15:05:40;21.60;99.90
5930;DHT22;2990;48.746;9.236;2022-10-16T15:08:05;21.60;99.90
5930;DHT22;2990;48.746;9.236;2022-10-16T15:10:33;21.70;99.90
5930;DHT22;2990;48.746;9.236;2022-10-16T15:13:00;21.60;99.90
5930;DHT22;2990;48.746;9.236;2022-10-16T15:17:58;21.50;99.90
5930;DHT22;2990;48.746;9.236;2022-10-16T15:20:28;21.50;99.90
5930;DHT22;2990;48.746;9.236;2022-10-16T15:22:56;21.40;99.90
5930;DHT22;2990;48.746;9.236;2022-10-16T15:27:56;21.40;99.90
5930;DHT22;2990;48.746;9.236;2022-10-16T15:30:21;21.20;99.90
5930;DHT22;2990;48.746;9.236;2022-10-16T15:32:47;21.30;99.90
5930;DHT22;2990;48.746;9.236;2022-10-16T15:35:12;21.30;99.90
5930;DHT22;2990;48.746;9.236;2022-10-16T15:37:38;21.30;99.90
5930;DHT22;2990;48.746;9.236;2022-10-16T15:40:04;21.20;99.90
5930;DHT22;2990;48.746;9.236;2022-10-16T15:42:29;21.10;99.90
5930;DHT22;2990;48.746;9.236;2022-10-16T15:44:55;21.00;99.90
5930;DHT22;2990;48.746;9.236;2022-10-16T15:47:21;20.80;99.90
5930;DHT22;2990;48.746;9.236;2022-10-16T15:49:46;20.90;99.90
5930;DHT22;2990;48.746;9.236;2022-10-16T15:52:12;20.80;99.90
5930;DHT22;2990;48.746;9.236;2022-10-16T15:54:38;20.70;99.90
5930;DHT22;2990;48.746;9.236;2022-10-16T15:57:03;20.70;99.90
5930;DHT22;2990;48.746;9.236;2022-10-16T15:59:29;20.60;1.00
5930;DHT22;2990;48.746;9.236;2022-10-16T16:01:55;20.60;1.00
5930;DHT22;2990;48.746;9.236;2022-10-16T16:04:21;20.50;1.00
5930;DHT22;2990;48.746;9.236;2022-10-16T16:06:46;20.50;1.00
5930;DHT22;2990;48.746;9.236;2022-10-16T16:09:13;20.30;1.00
5930;DHT22;2990;48.746;9.236;2022-10-16T16:11:39;20.40;1.00
5930;DHT22;2990;48.746;9.236;2022-10-16T16:14:06;20.20;1.00
5930;DHT22;2990;48.746;9.236;2022-10-16T16:16:31;20.20;1.00
5930;DHT22;2990;48.746;9.236;2022-10-16T16:19:02;20.10;1.00
5930;DHT22;2990;48.746;9.236;2022-10-16T16:21:28;20.00;1.00
5930;DHT22;2990;48.746;9.236;2022-10-16T16:23:53;19.90;1.00
5930;DHT22;2990;48.746;9.236;2022-10-16T16:26:27;19.80;1.00
5930;DHT22;2990;48.746;9.236;2022-10-16T16:28:55;19.70;1.00
5930;DHT22;2990;48.746;9.236;2022-10-16T16:31:25;19.70;1.00
5930;DHT22;2990;48.746;9.236;2022-10-16T16:33:51;19.60;1.00
5930;DHT22;2990;48.746;9.236;2022-10-16T16:36:16;19.50;98.90
5930;DHT22;2990;48.746;9.236;2022-10-16T16:38:43;19.50;99.90
5930;DHT22;2990;48.746;9.236;2022-10-16T16:41:18;19.40;99.90
5930;DHT22;2990;48.746;9.236;2022-10-16T16:43:45;19.40;99.90
5930;DHT22;2990;48.746;9.236;2022-10-16T16:46:11;19.40;99.90
5930;DHT22;2990;48.746;9.236;2022-10-16T16:48:37;19.40;99.90
5930;DHT22;2990;48.746;9.236;2022-10-16T16:51:04;19.30;1.00
5930;DHT22;2990;48.746;9.236;2022-10-16T16:53:30;19.30;1.00
5930;DHT22;2990;48.746;9.236;2022-10-16T16:56:01;19.30;1.00
5930;DHT22;2990;48.746;9.236;2022-10-16T16:58:26;19.30;40.60
5930;DHT22;2990;48.746;9.236;2022-10-16T17:00:52;19.30;99.90
5930;DHT22;2990;48.746;9.236;2022-10-16T17:03:17;19.10;99.90
5930;DHT22;2990;48.746;9.236;2022-10-16T17:05:43;19.20;1.00
5930;DHT22;2990;48.746;9.236;2022-10-16T17:08:08;19.20;1.00
5930;DHT22;2990;48.746;9.236;2022-10-16T17:10:42;19.20;99.90
5930;DHT22;2990;48.746;9.236;2022-10-16T17:13:08;19.10;99.90
5930;DHT22;2990;48.746;9.236;2022-10-16T17:15:33;19.10;99.90
5930;DHT22;2990;48.746;9.236;2022-10-16T17:17:59;19.10;99.90
5930;DHT22;2990;48.746;9.236;2022-10-16T17:20:24;19.10;99.90
5930;DHT22;2990;48.746;9.236;2022-10-16T17:22:50;19.10;99.90
5930;DHT22;2990;48.746;9.236;2022-10-16T17:25:16;19.00;1.00
5930;DHT22;2990;48.746;9.236;2022-10-16T17:27:42;18.90;1.00
5930;DHT22;2990;48.746;9.236;2022-10-16T17:30:07;18.90;1.00
5930;DHT22;2990;48.746;9.236;2022-10-16T17:32:33;18.80;99.90
5930;DHT22;2990;48.746;9.236;2022-10-16T17:34:59;18.80;99.90
5930;DHT22;2990;48.746;9.236;2022-10-16T17:37:25;18.70;1.00
5930;DHT22;2990;48.746;9.236;2022-10-16T17:39:50;18.70;1.00
5930;DHT22;2990;48.746;9.236;2022-10-16T17:42:16;18.70;99.90
5930;DHT22;2990;48.746;9.236;2022-10-16T17:44:42;18.70;1.00
5930;DHT22;2990;48.746;9.236;2022-10-16T17:47:07;18.70;1.00
5930;DHT22;2990;48.746;9.236;2022-10-16T17:49:33;18.70;1.00
5930;DHT22;2990;48.746;9.236;2022-10-16T17:51:58;18.70;99.90
5930;DHT22;2990;48.746;9.236;2022-10-16T17:54:27;18.70;1.00
5930;DHT22;2990;48.746;9.236;2022-10-16T17:56:52;18.70;99.90
5930;DHT22;2990;48.746;9.236;2022-10-16T17:59:18;18.70;1.00
5930;DHT22;2990;48.746;9.236;2022-10-16T18:01:47;18.60;99.90
5930;DHT22;2990;48.746;9.236;2022-10-16T18:04:14;18.60;1.00